Time,TemperatureF,DewpointF,PressureIn,WindDirection,WindDirectionDegrees,WindSpeedMPH,WindSpeedGustMPH,Humidity,HourlyPrecipIn,Conditions,Clouds,dailyrainin,SoftwareType,DateUTC
2013-08-02 00:08:00,58.7,54.0,25.58,WNW,297,1.0,2.0,85,0.00,,,0.00,weatherlink.com 1.10,2013-08-02 06:08:00,
2013-08-02 00:23:00,58.6,55.0,25.60,SW,215,4.0,5.0,86,0.00,,,0.00,weatherlink.com 1.10,2013-08-02 06:23:00,
2013-08-02 00:38:00,59.0,55.0,25.59,WSW,257,3.0,5.0,86,0.00,,,0.00,weatherlink.com 1.10,2013-08-02 06:38:00,
2013-08-02 00:53:00,59.4,55.0,25.59,SW,215,4.0,6.0,85,0.00,,,0.00,weatherlink.com 1.10,2013-08-02 06:53:00,
2013-08-02 01:08:00,59.8,55.0,25.59,WSW,243,6.0,7.0,85,0.00,,,0.00,weatherlink.com 1.10,2013-08-02 07:08:00,
2013-08-02 01:23:00,60.9,56.0,25.58,WSW,246,2.0,5.0,83,0.00,,,0.00,weatherlink.com 1.10,2013-08-02 07:23:00,
2013-08-02 01:38:00,61.1,56.0,25.59,SW,233,3.0,4.0,83,0.00,,,0.00,weatherlink.com 1.10,2013-08-02 07:38:00,
2013-08-02 01:53:00,61.6,56.0,25.59,WSW,238,4.0,6.0,82,0.00,,,0.00,weatherlink.com 1.10,2013-08-02 07:53:00,
2013-08-02 02:08:00,61.9,56.0,25.59,WSW,238,3.0,7.0,81,0.00,,,0.00,weatherlink.com 1.10,2013-08-02 08:08:00,
2013-08-02 02:23:00,61.7,56.0,25.60,ENE,64,11.0,13.0,82,0.00,,,0.00,weatherlink.com 1.10,2013-08-02 08:23:00,
2013-08-02 02:53:00,60.9,56.0,25.59,ENE,57,7.0,7.0,83,0.00,,,0.00,weatherlink.com 1.10,2013-08-02 08:53:00,
2013-08-02 03:08:00,60.6,56.0,25.59,SSE,148,2.0,5.0,84,0.00,,,0.00,weatherlink.com 1.10,2013-08-02 09:08:00,
2013-08-02 03:23:00,60.9,56.0,25.59,SE,141,2.0,5.0,83,0.00,,,0.00,weatherlink.com 1.10,2013-08-02 09:23:00,
2013-08-02 03:38:00,58.5,55.0,25.60,NE,53,5.0,8.0,87,0.00,,,0.00,weatherlink.com 1.10,2013-08-02 09:38:00,
2013-08-02 03:54:00,57.6,54.0,25.60,East,80,3.0,5.0,88,0.00,,,0.00,weatherlink.com 1.10,2013-08-02 09:54:00,
2013-08-02 04:09:00,55.7,53.0,25.59,East,101,2.0,5.0,91,0.00,,,0.00,weatherlink.com 1.10,2013-08-02 10:09:00,
2013-08-02 04:24:00,56.1,54.0,25.58,ESE,113,3.0,4.0,92,0.00,,,0.00,weatherlink.com 1.10,2013-08-02 10:24:00,
2013-08-02 04:39:00,55.2,53.0,25.59,NNE,24,4.0,4.0,92,0.00,,,0.00,weatherlink.com 1.10,2013-08-02 10:39:00,
2013-08-02 04:54:00,55.2,53.0,25.58,WNW,297,0.0,6.0,93,0.00,,,0.00,weatherlink.com 1.10,2013-08-02 10:54:00,
2013-08-02 05:09:00,54.7,53.0,25.59,ESE,105,0.0,5.0,93,0.00,,,0.00,weatherlink.com 1.10,2013-08-02 11:09:00,
2013-08-02 05:24:00,54.6,53.0,25.59,ESE,105,3.0,4.0,94,0.00,,,0.00,weatherlink.com 1.10,2013-08-02 11:24:00,
2013-08-02 05:39:00,54.9,54.0,25.59,SSE,167,3.0,4.0,95,0.00,,,0.00,weatherlink.com 1.10,2013-08-02 11:39:00,
2013-08-02 05:54:00,55.7,54.0,25.59,SSW,200,4.0,5.0,92,0.00,,,0.00,weatherlink.com 1.10,2013-08-02 11:54:00,
2013-08-02 06:09:00,55.5,54.0,25.59,South,187,3.0,6.0,93,0.00,,,0.00,weatherlink.com 1.10,2013-08-02 12:09:00,
2013-08-02 06:24:00,57.7,56.0,25.60,East,97,6.0,9.0,93,0.00,,,0.00,weatherlink.com 1.10,2013-08-02 12:24:00,
2013-08-02 06:39:00,58.8,56.0,25.59,SSW,208,4.0,8.0,91,0.00,,,0.00,weatherlink.com 1.10,2013-08-02 12:39:00,
2013-08-02 06:54:00,60.3,57.0,25.59,SE,146,5.0,6.0,90,0.00,,,0.00,weatherlink.com 1.10,2013-08-02 12:54:00,
2013-08-02 07:09:00,61.4,59.0,25.59,SSE,149,7.0,12.0,90,0.00,,,0.00,weatherlink.com 1.10,2013-08-02 13:09:00,
2013-08-02 07:24:00,62.6,59.0,25.59,SSE,158,8.0,11.0,89,0.00,,,0.00,weatherlink.com 1.10,2013-08-02 13:24:00,
2013-08-02 07:39:00,63.8,60.0,25.59,SSW,198,8.0,12.0,88,0.00,,,0.00,weatherlink.com 1.10,2013-08-02 13:39:00,
2013-08-02 07:54:00,64.6,60.0,25.60,SSW,203,5.0,12.0,86,0.00,,,0.00,weatherlink.com 1.10,2013-08-02 13:54:00,
2013-08-02 08:09:00,65.7,61.0,25.59,South,179,7.0,13.0,85,0.00,,,0.00,weatherlink.com 1.10,2013-08-02 14:09:00,
2013-08-02 08:24:00,67.1,61.0,25.59,SW,235,7.0,11.0,82,0.00,,,0.00,weatherlink.com 1.10,2013-08-02 14:24:00,
2013-08-02 08:39:00,68.5,61.0,25.59,SW,235,11.0,12.0,78,0.00,,,0.00,weatherlink.com 1.10,2013-08-02 14:39:00,
2013-08-02 08:54:00,69.4,61.0,25.59,West,260,7.0,13.0,75,0.00,,,0.00,weatherlink.com 1.10,2013-08-02 14:54:00,
2013-08-02 09:09:00,70.6,61.0,25.59,West,267,7.0,12.0,72,0.00,,,0.00,weatherlink.com 1.10,2013-08-02 15:09:00,
2013-08-02 09:24:00,72.0,61.0,25.59,WSW,243,11.0,13.0,68,0.00,,,0.00,weatherlink.com 1.10,2013-08-02 15:24:00,
2013-08-02 09:39:00,74.2,61.0,25.59,WSW,255,10.0,14.0,64,0.00,,,0.00,weatherlink.com 1.10,2013-08-02 15:39:00,
2013-08-02 09:54:00,75.7,59.0,25.59,NNW,330,5.0,15.0,57,0.00,,,0.00,weatherlink.com 1.10,2013-08-02 15:54:00,
2013-08-02 10:10:00,77.8,59.0,25.59,WNW,296,0.0,10.0,52,0.00,,,0.00,weatherlink.com 1.10,2013-08-02 16:10:00,
2013-08-02 10:25:00,80.3,56.0,25.59,NW,304,5.0,13.0,44,0.00,,,0.00,weatherlink.com 1.10,2013-08-02 16:25:00,
2013-08-02 10:40:00,81.9,55.0,25.59,NW,323,10.0,13.0,40,0.00,,,0.00,weatherlink.com 1.10,2013-08-02 16:40:00,
2013-08-02 10:55:00,82.6,55.0,25.59,NNW,338,8.0,13.0,39,0.00,,,0.00,weatherlink.com 1.10,2013-08-02 16:55:00,
2013-08-02 11:10:00,83.2,54.0,25.60,NNW,338,5.0,13.0,36,0.00,,,0.00,weatherlink.com 1.10,2013-08-02 17:10:00,
2013-08-02 11:25:00,84.2,54.0,25.60,NW,316,8.0,14.0,35,0.00,,,0.00,weatherlink.com 1.10,2013-08-02 17:25:00,
2013-08-02 11:40:00,85.3,55.0,25.59,NNE,18,13.0,18.0,36,0.00,,,0.00,weatherlink.com 1.10,2013-08-02 17:40:00,
2013-08-02 11:55:00,85.6,56.0,25.60,NNE,12,10.0,18.0,36,0.00,,,0.00,weatherlink.com 1.10,2013-08-02 17:55:00,
2013-08-02 12:10:00,84.7,57.0,25.60,NNE,31,16.0,18.0,39,0.00,,,0.00,weatherlink.com 1.10,2013-08-02 18:10:00,
2013-08-02 12:25:00,84.4,54.0,25.61,North,352,7.0,18.0,35,0.00,,,0.00,weatherlink.com 1.10,2013-08-02 18:25:00,
2013-08-02 12:40:00,84.8,53.0,25.61,NNW,347,13.0,18.0,34,0.00,,,0.00,weatherlink.com 1.10,2013-08-02 18:40:00,
2013-08-02 12:55:00,85.5,53.0,25.61,NNE,19,21.0,21.0,33,0.00,,,0.00,weatherlink.com 1.10,2013-08-02 18:55:00,
2013-08-02 13:10:00,85.3,54.0,25.61,NNE,14,13.0,19.0,34,0.00,,,0.00,weatherlink.com 1.10,2013-08-02 19:10:00,
2013-08-02 13:25:00,84.7,61.0,25.61,ENE,57,15.0,25.0,45,0.00,,,0.00,weatherlink.com 1.10,2013-08-02 19:25:00,
2013-08-02 13:40:00,84.0,61.0,25.62,ENE,63,17.0,24.0,46,0.00,,,0.00,weatherlink.com 1.10,2013-08-02 19:40:00,
2013-08-02 13:55:00,82.3,62.0,25.62,ENE,75,19.0,27.0,51,0.00,,,0.00,weatherlink.com 1.10,2013-08-02 19:55:00,
2013-08-02 14:10:00,83.0,60.0,25.62,ENE,67,21.0,23.0,45,0.00,,,0.00,weatherlink.com 1.10,2013-08-02 20:10:00,
2013-08-02 14:25:00,82.9,61.0,25.62,ENE,57,20.0,26.0,47,0.00,,,0.00,weatherlink.com 1.10,2013-08-02 20:25:00,
2013-08-02 14:40:00,83.8,60.0,25.62,NE,56,10.0,24.0,45,0.00,,,0.00,weatherlink.com 1.10,2013-08-02 20:40:00,
2013-08-02 14:55:00,83.2,61.0,25.62,NE,56,15.0,24.0,48,0.00,,,0.00,weatherlink.com 1.10,2013-08-02 20:55:00,
2013-08-02 15:10:00,82.3,61.0,25.62,ENE,72,18.0,24.0,48,0.00,,,0.00,weatherlink.com 1.10,2013-08-02 21:10:00,
2013-08-02 15:25:00,81.9,61.0,25.61,ENE,76,19.0,24.0,49,0.00,,,0.00,weatherlink.com 1.10,2013-08-02 21:25:00,
2013-08-02 15:40:00,82.3,61.0,25.62,East,94,13.0,18.0,48,0.00,,,0.00,weatherlink.com 1.10,2013-08-02 21:40:00,
2013-08-02 15:55:00,82.1,60.0,25.62,ENE,68,11.0,21.0,47,0.00,,,0.00,weatherlink.com 1.10,2013-08-02 21:55:00,
2013-08-02 16:10:00,82.2,59.0,25.62,East,81,8.0,20.0,46,0.00,,,0.00,weatherlink.com 1.10,2013-08-02 22:10:00,
2013-08-02 16:25:00,82.6,59.0,25.62,ENE,77,12.0,18.0,45,0.00,,,0.00,weatherlink.com 1.10,2013-08-02 22:25:00,
2013-08-02 16:40:00,82.7,59.0,25.61,ENE,65,15.0,18.0,44,0.00,,,0.00,weatherlink.com 1.10,2013-08-02 22:40:00,
2013-08-02 16:55:00,82.5,60.0,25.61,East,101,16.0,18.0,46,0.00,,,0.00,weatherlink.com 1.10,2013-08-02 22:55:00,
2013-08-02 17:10:00,82.5,60.0,25.61,East,86,12.0,15.0,46,0.00,,,0.00,weatherlink.com 1.10,2013-08-02 23:10:00,
2013-08-02 17:26:00,82.5,58.0,25.61,East,82,5.0,14.0,44,0.00,,,0.00,weatherlink.com 1.10,2013-08-02 23:26:00,
2013-08-02 17:41:00,81.9,60.0,25.61,ENE,70,8.0,20.0,47,0.00,,,0.00,weatherlink.com 1.10,2013-08-02 23:41:00,
2013-08-02 17:56:00,81.4,59.0,25.61,East,92,9.0,14.0,46,0.00,,,0.00,weatherlink.com 1.10,2013-08-02 23:56:00,
2013-08-02 18:10:00,82.0,59.0,25.61,East,98,14.0,16.0,46,0.00,,,0.00,weatherlink.com 1.10,2013-08-03 00:10:00,
2013-08-02 18:25:00,81.0,59.0,25.62,ESE,115,12.0,18.0,48,0.00,,,0.00,weatherlink.com 1.10,2013-08-03 00:25:00,
2013-08-02 18:40:00,80.3,59.0,25.62,ESE,117,13.0,16.0,49,0.00,,,0.00,weatherlink.com 1.10,2013-08-03 00:40:00,
2013-08-02 18:56:00,80.0,60.0,25.62,ESE,115,15.0,19.0,51,0.00,,,0.00,weatherlink.com 1.10,2013-08-03 00:56:00,
2013-08-02 19:11:00,79.3,62.0,25.63,SE,131,10.0,20.0,55,0.00,,,0.00,weatherlink.com 1.10,2013-08-03 01:11:00,
2013-08-02 19:26:00,78.2,62.0,25.63,SE,124,9.0,17.0,58,0.00,,,0.00,weatherlink.com 1.10,2013-08-03 01:26:00,
2013-08-02 19:41:00,76.8,62.0,25.63,SE,129,8.0,18.0,61,0.00,,,0.00,weatherlink.com 1.10,2013-08-03 01:41:00,
2013-08-02 19:56:00,75.2,62.0,25.64,ESE,110,7.0,13.0,64,0.00,,,0.00,weatherlink.com 1.10,2013-08-03 01:56:00,
2013-08-02 20:11:00,73.7,62.0,25.64,ESE,115,5.0,11.0,67,0.00,,,0.00,weatherlink.com 1.10,2013-08-03 02:11:00,
2013-08-02 20:26:00,72.3,62.0,25.65,ESE,118,6.0,8.0,70,0.00,,,0.00,weatherlink.com 1.10,2013-08-03 02:26:00,
2013-08-02 20:41:00,71.5,62.0,25.66,ESE,113,8.0,8.0,72,0.00,,,0.00,weatherlink.com 1.10,2013-08-03 02:41:00,
2013-08-02 20:56:00,70.9,63.0,25.66,SE,134,6.0,10.0,75,0.00,,,0.00,weatherlink.com 1.10,2013-08-03 02:56:00,
2013-08-02 21:11:00,70.6,63.0,25.67,SE,131,6.0,9.0,76,0.00,,,0.00,weatherlink.com 1.10,2013-08-03 03:11:00,
2013-08-02 21:26:00,69.6,63.0,25.68,ESE,110,5.0,7.0,79,0.00,,,0.00,weatherlink.com 1.10,2013-08-03 03:26:00,
2013-08-02 21:41:00,69.0,63.0,25.68,ESE,107,6.0,9.0,81,0.00,,,0.00,weatherlink.com 1.10,2013-08-03 03:41:00,
2013-08-02 21:56:00,68.7,63.0,25.68,ESE,105,9.0,9.0,83,0.00,,,0.00,weatherlink.com 1.10,2013-08-03 03:56:00,
2013-08-02 22:41:00,68.0,64.0,25.69,East,101,8.0,13.0,87,0.00,,,0.00,weatherlink.com 1.10,2013-08-03 04:41:00,
2013-08-02 22:56:00,67.5,64.0,25.69,ESE,103,8.0,11.0,88,0.00,,,0.00,weatherlink.com 1.10,2013-08-03 04:56:00,
2013-08-02 23:11:00,67.6,64.0,25.70,ESE,110,12.0,15.0,89,0.00,,,0.00,weatherlink.com 1.10,2013-08-03 05:11:00,
2013-08-02 23:26:00,67.1,64.0,25.70,ESE,111,11.0,13.0,90,0.00,,,0.00,weatherlink.com 1.10,2013-08-03 05:26:00,
2013-08-02 23:41:00,66.5,64.0,25.71,ESE,110,8.0,11.0,92,0.00,,,0.00,weatherlink.com 1.10,2013-08-03 05:41:00,
2013-08-02 23:56:00,66.5,65.0,25.71,ESE,111,11.0,12.0,93,0.00,,,0.00,weatherlink.com 1.10,2013-08-03 05:56:00,